sensor_id;sensor_type;location;lat;lon;timestamp;temperature;humidity
29237;DHT22;16266;50.866;4.398;2023-07-29T00:01:50;19.60;99.90
29237;DHT22;16266;50.866;4.398;2023-07-29T00:04:16;19.50;99.90
29237;DHT22;16266;50.866;4.398;2023-07-29T00:06:42;19.50;99.90
29237;DHT22;16266;50.866;4.398;2023-07-29T00:09:08;19.40;99.90
29237;DHT22;16266;50.866;4.398;2023-07-29T00:11:34;19.30;99.90
29237;DHT22;16266;50.866;4.398;2023-07-29T00:14:01;19.30;99.90
29237;DHT22;16266;50.866;4.398;2023-07-29T00:16:27;19.30;99.90
29237;DHT22;16266;50.866;4.398;2023-07-29T00:18:52;19.20;99.90
29237;DHT22;16266;50.866;4.398;2023-07-29T00:21:18;19.20;99.90
29237;DHT22;16266;50.866;4.398;2023-07-29T00:23:44;19.10;99.90
29237;DHT22;16266;50.866;4.398;2023-07-29T00:26:10;19.10;99.90
29237;DHT22;16266;50.866;4.398;2023-07-29T00:28:36;19.00;99.90
29237;DHT22;16266;50.866;4.398;2023-07-29T00:31:02;18.90;99.90
29237;DHT22;16266;50.866;4.398;2023-07-29T00:33:27;18.80;99.90
29237;DHT22;16266;50.866;4.398;2023-07-29T00:35:53;18.80;99.90
29237;DHT22;16266;50.866;4.398;2023-07-29T00:38:19;18.70;99.90
29237;DHT22;16266;50.866;4.398;2023-07-29T00:40:45;18.70;99.90
29237;DHT22;16266;50.866;4.398;2023-07-29T00:43:11;18.70;99.90
29237;DHT22;16266;50.866;4.398;2023-07-29T00:45:38;18.70;99.90
29237;DHT22;16266;50.866;4.398;2023-07-29T00:48:04;18.50;99.90
29237;DHT22;16266;50.866;4.398;2023-07-29T00:50:31;18.50;99.90
29237;DHT22;16266;50.866;4.398;2023-07-29T00:52:58;18.50;99.90
29237;DHT22;16266;50.866;4.398;2023-07-29T00:55:24;18.40;99.90
29237;DHT22;16266;50.866;4.398;2023-07-29T00:57:51;18.50;99.90
29237;DHT22;16266;50.866;4.398;2023-07-29T01:00:20;18.40;99.90
29237;DHT22;16266;50.866;4.398;2023-07-29T01:02:46;18.40;99.90
29237;DHT22;16266;50.866;4.398;2023-07-29T01:05:13;18.40;99.90
29237;DHT22;16266;50.866;4.398;2023-07-29T01:10:58;18.40;99.90
29237;DHT22;16266;50.866;4.398;2023-07-29T01:15:52;18.40;99.90
29237;DHT22;16266;50.866;4.398;2023-07-29T01:18:26;18.50;99.90
29237;DHT22;16266;50.866;4.398;2023-07-29T01:20:54;18.30;99.90
29237;DHT22;16266;50.866;4.398;2023-07-29T01:23:24;18.30;99.90
29237;DHT22;16266;50.866;4.398;2023-07-29T01:25:50;18.30;99.90
29237;DHT22;16266;50.866;4.398;2023-07-29T01:28:15;18.30;99.90
29237;DHT22;16266;50.866;4.398;2023-07-29T01:30:43;18.30;99.90
29237;DHT22;16266;50.866;4.398;2023-07-29T01:33:25;18.30;99.90
29237;DHT22;16266;50.866;4.398;2023-07-29T01:36:13;18.30;99.90
29237;DHT22;16266;50.866;4.398;2023-07-29T01:38:41;18.20;99.90
29237;DHT22;16266;50.866;4.398;2023-07-29T01:41:08;18.20;99.90
29237;DHT22;16266;50.866;4.398;2023-07-29T01:43:34;18.20;99.90
29237;DHT22;16266;50.866;4.398;2023-07-29T01:46:05;18.10;99.90
29237;DHT22;16266;50.866;4.398;2023-07-29T01:48:31;18.20;99.90
29237;DHT22;16266;50.866;4.398;2023-07-29T01:50:57;18.20;99.90
29237;DHT22;16266;50.866;4.398;2023-07-29T01:53:23;18.10;99.90
29237;DHT22;16266;50.866;4.398;2023-07-29T01:55:49;18.10;99.90
29237;DHT22;16266;50.866;4.398;2023-07-29T01:58:14;18.10;99.90
29237;DHT22;16266;50.866;4.398;2023-07-29T02:00:40;18.10;99.90
29237;DHT22;16266;50.866;4.398;2023-07-29T02:03:06;18.10;99.90
29237;DHT22;16266;50.866;4.398;2023-07-29T02:05:32;18.10;99.90
29237;DHT22;16266;50.866;4.398;2023-07-29T02:07:57;18.10;99.90
29237;DHT22;16266;50.866;4.398;2023-07-29T02:10:23;18.10;99.90
29237;DHT22;16266;50.866;4.398;2023-07-29T02:12:49;18.10;99.90
29237;DHT22;16266;50.866;4.398;2023-07-29T02:15:14;18.10;99.90
29237;DHT22;16266;50.866;4.398;2023-07-29T02:17:41;18.10;99.90
29237;DHT22;16266;50.866;4.398;2023-07-29T02:20:07;18.00;99.90
29237;DHT22;16266;50.866;4.398;2023-07-29T02:22:34;18.00;99.90
29237;DHT22;16266;50.866;4.398;2023-07-29T02:24:59;18.00;99.90
29237;DHT22;16266;50.866;4.398;2023-07-29T02:27:26;18.00;99.90
29237;DHT22;16266;50.866;4.398;2023-07-29T02:29:53;17.90;99.90
29237;DHT22;16266;50.866;4.398;2023-07-29T02:32:18;17.90;99.90
29237;DHT22;16266;50.866;4.398;2023-07-29T02:34:44;18.00;99.90
29237;DHT22;16266;50.866;4.398;2023-07-29T02:37:10;18.00;99.90
29237;DHT22;16266;50.866;4.398;2023-07-29T02:39:36;18.00;99.90
29237;DHT22;16266;50.866;4.398;2023-07-29T02:42:02;17.90;99.90
29237;DHT22;16266;50.866;4.398;2023-07-29T02:44:28;18.00;99.90
29237;DHT22;16266;50.866;4.398;2023-07-29T02:46:54;17.90;99.90
29237;DHT22;16266;50.866;4.398;2023-07-29T02:49:21;17.90;99.90
29237;DHT22;16266;50.866;4.398;2023-07-29T02:51:47;18.00;99.90
29237;DHT22;16266;50.866;4.398;2023-07-29T02:54:13;17.90;99.90
29237;DHT22;16266;50.866;4.398;2023-07-29T02:56:38;17.90;99.90
29237;DHT22;16266;50.866;4.398;2023-07-29T02:59:04;17.90;99.90
29237;DHT22;16266;50.866;4.398;2023-07-29T03:01:30;18.00;99.90
29237;DHT22;16266;50.866;4.398;2023-07-29T03:03:56;18.00;99.90
29237;DHT22;16266;50.866;4.398;2023-07-29T03:06:23;18.10;99.90
29237;DHT22;16266;50.866;4.398;2023-07-29T03:08:49;18.10;99.90
29237;DHT22;16266;50.866;4.398;2023-07-29T03:11:15;18.10;99.90
29237;DHT22;16266;50.866;4.398;2023-07-29T03:13:42;18.00;99.90
29237;DHT22;16266;50.866;4.398;2023-07-29T03:16:10;18.00;99.90
29237;DHT22;16266;50.866;4.398;2023-07-29T03:18:36;17.90;99.90
29237;DHT22;16266;50.866;4.398;2023-07-29T03:21:02;17.90;99.90
29237;DHT22;16266;50.866;4.398;2023-07-29T03:23:29;17.90;99.90
29237;DHT22;16266;50.866;4.398;2023-07-29T03:25:56;17.90;99.90
29237;DHT22;16266;50.866;4.398;2023-07-29T03:28:25;17.70;99.90
29237;DHT22;16266;50.866;4.398;2023-07-29T03:30:50;17.80;99.90
29237;DHT22;16266;50.866;4.398;2023-07-29T03:33:16;17.90;99.90
29237;DHT22;16266;50.866;4.398;2023-07-29T03:35:44;17.80;99.90
29237;DHT22;16266;50.866;4.398;2023-07-29T03:38:10;17.80;99.90
29237;DHT22;16266;50.866;4.398;2023-07-29T03:40:38;17.70;99.90
29237;DHT22;16266;50.866;4.398;2023-07-29T03:43:05;17.70;99.90
29237;DHT22;16266;50.866;4.398;2023-07-29T03:45:31;17.70;99.90
29237;DHT22;16266;50.866;4.398;2023-07-29T03:47:57;17.80;99.90
29237;DHT22;16266;50.866;4.398;2023-07-29T03:50:23;17.80;99.90
29237;DHT22;16266;50.866;4.398;2023-07-29T03:52:49;17.80;99.90
29237;DHT22;16266;50.866;4.398;2023-07-29T03:55:15;17.70;99.90
29237;DHT22;16266;50.866;4.398;2023-07-29T03:57:41;17.80;99.90
29237;DHT22;16266;50.866;4.398;2023-07-29T04:00:07;17.80;99.90
29237;DHT22;16266;50.866;4.398;2023-07-29T04:02:34;17.80;99.90
29237;DHT22;16266;50.866;4.398;2023-07-29T04:05:03;17.80;99.90
29237;DHT22;16266;50.866;4.398;2023-07-29T04:07:29;17.80;99.90
29237;DHT22;16266;50.866;4.398;2023-07-29T04:09:55;17.80;99.90
29237;DHT22;16266;50.866;4.398;2023-07-29T04:12:21;17.80;99.90
29237;DHT22;16266;50.866;4.398;2023-07-29T04:14:47;17.80;99.90
29237;DHT22;16266;50.866;4.398;2023-07-29T04:17:13;17.80;99.90
29237;DHT22;16266;50.866;4.398;2023-07-29T04:19:38;17.80;99.90
29237;DHT22;16266;50.866;4.398;2023-07-29T04:22:04;17.90;99.90
29237;DHT22;16266;50.866;4.398;2023-07-29T04:24:30;17.90;99.90
29237;DHT22;16266;50.866;4.398;2023-07-29T04:26:55;17.90;99.90
29237;DHT22;16266;50.866;4.398;2023-07-29T04:29:21;17.90;99.90
29237;DHT22;16266;50.866;4.398;2023-07-29T04:31:49;17.90;99.90
29237;DHT22;16266;50.866;4.398;2023-07-29T04:34:14;17.90;99.90
29237;DHT22;16266;50.866;4.398;2023-07-29T04:36:40;18.00;99.90
29237;DHT22;16266;50.866;4.398;2023-07-29T04:39:05;18.10;99.90
29237;DHT22;16266;50.866;4.398;2023-07-29T04:41:31;18.20;99.90
29237;DHT22;16266;50.866;4.398;2023-07-29T04:43:57;18.10;99.90
29237;DHT22;16266;50.866;4.398;2023-07-29T04:46:22;18.20;99.90
29237;DHT22;16266;50.866;4.398;2023-07-29T04:48:48;18.20;99.90
29237;DHT22;16266;50.866;4.398;2023-07-29T04:51:14;18.20;99.90
29237;DHT22;16266;50.866;4.398;2023-07-29T04:53:39;18.10;99.90
29237;DHT22;16266;50.866;4.398;2023-07-29T04:56:05;18.10;99.90
29237;DHT22;16266;50.866;4.398;2023-07-29T04:58:31;18.20;99.90
29237;DHT22;16266;50.866;4.398;2023-07-29T05:01:00;18.20;99.90
29237;DHT22;16266;50.866;4.398;2023-07-29T05:03:25;18.20;99.90
29237;DHT22;16266;50.866;4.398;2023-07-29T05:05:51;18.20;99.90
29237;DHT22;16266;50.866;4.398;2023-07-29T05:08:19;18.20;99.90
29237;DHT22;16266;50.866;4.398;2023-07-29T05:10:46;18.20;99.90
29237;DHT22;16266;50.866;4.398;2023-07-29T05:13:13;18.20;99.90
29237;DHT22;16266;50.866;4.398;2023-07-29T05:15:39;18.20;99.90
29237;DHT22;16266;50.866;4.398;2023-07-29T05:18:04;18.50;99.90
29237;DHT22;16266;50.866;4.398;2023-07-29T05:20:30;19.00;99.90
29237;DHT22;16266;50.866;4.398;2023-07-29T05:22:56;19.70;99.90
29237;DHT22;16266;50.866;4.398;2023-07-29T05:25:21;20.70;99.90
29237;DHT22;16266;50.866;4.398;2023-07-29T05:27:47;21.00;99.90
29237;DHT22;16266;50.866;4.398;2023-07-29T05:30:13;20.90;99.90
29237;DHT22;16266;50.866;4.398;2023-07-29T05:32:38;20.70;99.90
29237;DHT22;16266;50.866;4.398;2023-07-29T05:35:04;20.60;99.90
29237;DHT22;16266;50.866;4.398;2023-07-29T05:37:30;20.20;99.90
29237;DHT22;16266;50.866;4.398;2023-07-29T05:39:56;20.10;99.90
29237;DHT22;16266;50.866;4.398;2023-07-29T05:42:21;20.10;99.90
29237;DHT22;16266;50.866;4.398;2023-07-29T05:44:47;20.20;99.90
29237;DHT22;16266;50.866;4.398;2023-07-29T05:47:12;20.20;99.90
29237;DHT22;16266;50.866;4.398;2023-07-29T05:49:38;20.70;99.90
29237;DHT22;16266;50.866;4.398;2023-07-29T05:52:04;21.80;99.90
29237;DHT22;16266;50.866;4.398;2023-07-29T05:54:30;22.60;99.90
29237;DHT22;16266;50.866;4.398;2023-07-29T05:56:55;22.80;99.90
29237;DHT22;16266;50.866;4.398;2023-07-29T05:59:21;23.10;99.90
29237;DHT22;16266;50.866;4.398;2023-07-29T06:01:47;23.50;99.90
29237;DHT22;16266;50.866;4.398;2023-07-29T06:04:12;23.00;99.90
29237;DHT22;16266;50.866;4.398;2023-07-29T06:06:38;22.70;99.90
29237;DHT22;16266;50.866;4.398;2023-07-29T06:09:04;22.40;99.90
29237;DHT22;16266;50.866;4.398;2023-07-29T06:11:29;22.50;99.90
29237;DHT22;16266;50.866;4.398;2023-07-29T06:13:55;22.70;99.90
29237;DHT22;16266;50.866;4.398;2023-07-29T06:16:21;23.20;99.90
29237;DHT22;16266;50.866;4.398;2023-07-29T06:18:46;24.40;99.90
29237;DHT22;16266;50.866;4.398;2023-07-29T06:21:12;26.10;99.90
29237;DHT22;16266;50.866;4.398;2023-07-29T06:23:45;27.80;99.90
29237;DHT22;16266;50.866;4.398;2023-07-29T06:26:11;28.60;99.90
29237;DHT22;16266;50.866;4.398;2023-07-29T06:28:37;28.20;99.90
29237;DHT22;16266;50.866;4.398;2023-07-29T06:31:03;27.80;99.90
29237;DHT22;16266;50.866;4.398;2023-07-29T06:33:29;28.00;99.90
29237;DHT22;16266;50.866;4.398;2023-07-29T06:35:55;28.20;99.90
29237;DHT22;16266;50.866;4.398;2023-07-29T06:38:21;28.20;98.90
29237;DHT22;16266;50.866;4.398;2023-07-29T06:40:48;28.00;99.80
29237;DHT22;16266;50.866;4.398;2023-07-29T06:43:14;27.80;97.90
29237;DHT22;16266;50.866;4.398;2023-07-29T06:45:40;26.90;99.90
29237;DHT22;16266;50.866;4.398;2023-07-29T06:48:05;26.40;99.90
29237;DHT22;16266;50.866;4.398;2023-07-29T06:50:31;26.20;99.90
29237;DHT22;16266;50.866;4.398;2023-07-29T06:52:57;26.20;99.90
29237;DHT22;16266;50.866;4.398;2023-07-29T06:55:22;25.80;99.90
29237;DHT22;16266;50.866;4.398;2023-07-29T06:57:48;25.40;99.90
29237;DHT22;16266;50.866;4.398;2023-07-29T07:00:14;25.20;99.90
29237;DHT22;16266;50.866;4.398;2023-07-29T07:02:39;25.10;99.90
29237;DHT22;16266;50.866;4.398;2023-07-29T07:05:05;24.90;99.90
29237;DHT22;16266;50.866;4.398;2023-07-29T07:07:31;24.50;99.90
29237;DHT22;16266;50.866;4.398;2023-07-29T07:09:56;24.00;99.90
29237;DHT22;16266;50.866;4.398;2023-07-29T07:12:22;23.90;99.90
29237;DHT22;16266;50.866;4.398;2023-07-29T07:14:48;23.80;99.90
29237;DHT22;16266;50.866;4.398;2023-07-29T07:17:13;23.40;99.90
29237;DHT22;16266;50.866;4.398;2023-07-29T07:19:39;23.20;99.90
29237;DHT22;16266;50.866;4.398;2023-07-29T07:22:05;23.30;99.90
29237;DHT22;16266;50.866;4.398;2023-07-29T07:24:31;23.20;99.90
29237;DHT22;16266;50.866;4.398;2023-07-29T07:26:56;23.00;99.90
29237;DHT22;16266;50.866;4.398;2023-07-29T07:29:22;22.80;99.90
29237;DHT22;16266;50.866;4.398;2023-07-29T07:31:52;22.60;99.90
29237;DHT22;16266;50.866;4.398;2023-07-29T07:34:22;22.50;99.90
29237;DHT22;16266;50.866;4.398;2023-07-29T07:36:48;22.40;99.90
29237;DHT22;16266;50.866;4.398;2023-07-29T07:39:14;22.40;99.90
29237;DHT22;16266;50.866;4.398;2023-07-29T07:41:41;22.30;99.90
29237;DHT22;16266;50.866;4.398;2023-07-29T07:44:08;22.40;99.90
29237;DHT22;16266;50.866;4.398;2023-07-29T07:46:34;22.60;99.90
29237;DHT22;16266;50.866;4.398;2023-07-29T07:49:00;22.70;99.90
29237;DHT22;16266;50.866;4.398;2023-07-29T07:51:25;23.10;99.90
29237;DHT22;16266;50.866;4.398;2023-07-29T07:53:51;23.50;99.90
29237;DHT22;16266;50.866;4.398;2023-07-29T07:56:17;23.90;99.90
29237;DHT22;16266;50.866;4.398;2023-07-29T07:58:42;24.20;99.90
29237;DHT22;16266;50.866;4.398;2023-07-29T08:01:09;24.60;99.90
29237;DHT22;16266;50.866;4.398;2023-07-29T08:03:35;25.00;99.90
29237;DHT22;16266;50.866;4.398;2023-07-29T08:06:01;25.70;99.90
29237;DHT22;16266;50.866;4.398;2023-07-29T08:08:27;26.70;99.90
29237;DHT22;16266;50.866;4.398;2023-07-29T08:10:54;27.60;99.90
29237;DHT22;16266;50.866;4.398;2023-07-29T08:13:20;28.50;99.90
29237;DHT22;16266;50.866;4.398;2023-07-29T08:15:48;29.50;97.80
29237;DHT22;16266;50.866;4.398;2023-07-29T08:18:13;30.40;94.80
29237;DHT22;16266;50.866;4.398;2023-07-29T08:20:40;30.70;92.80
29237;DHT22;16266;50.866;4.398;2023-07-29T08:23:06;30.60;91.50
29237;DHT22;16266;50.866;4.398;2023-07-29T08:25:31;30.50;91.30
29237;DHT22;16266;50.866;4.398;2023-07-29T08:27:57;31.30;90.30
29237;DHT22;16266;50.866;4.398;2023-07-29T08:30:23;31.80;84.30
29237;DHT22;16266;50.866;4.398;2023-07-29T08:32:48;32.30;81.40
29237;DHT22;16266;50.866;4.398;2023-07-29T08:35:14;32.80;74.70
29237;DHT22;16266;50.866;4.398;2023-07-29T08:37:40;32.50;72.40
29237;DHT22;16266;50.866;4.398;2023-07-29T08:40:06;32.90;72.20
29237;DHT22;16266;50.866;4.398;2023-07-29T08:42:32;32.70;67.60
29237;DHT22;16266;50.866;4.398;2023-07-29T08:45:07;32.60;69.40
29237;DHT22;16266;50.866;4.398;2023-07-29T08:47:36;32.70;71.30
29237;DHT22;16266;50.866;4.398;2023-07-29T08:50:03;32.90;65.10
29237;DHT22;16266;50.866;4.398;2023-07-29T08:52:29;33.60;65.10
29237;DHT22;16266;50.866;4.398;2023-07-29T08:54:57;33.60;59.90
29237;DHT22;16266;50.866;4.398;2023-07-29T08:57:23;33.10;59.50
29237;DHT22;16266;50.866;4.398;2023-07-29T08:59:49;32.20;61.00
29237;DHT22;16266;50.866;4.398;2023-07-29T09:02:15;32.50;63.60
29237;DHT22;16266;50.866;4.398;2023-07-29T09:04:41;34.30;57.70
29237;DHT22;16266;50.866;4.398;2023-07-29T09:07:08;35.40;52.00
29237;DHT22;16266;50.866;4.398;2023-07-29T09:09:34;35.90;49.10
29237;DHT22;16266;50.866;4.398;2023-07-29T09:11:59;36.20;44.50
29237;DHT22;16266;50.866;4.398;2023-07-29T09:14:25;37.00;43.70
29237;DHT22;16266;50.866;4.398;2023-07-29T09:16:51;36.00;38.40
29237;DHT22;16266;50.866;4.398;2023-07-29T09:19:17;34.90;43.80
29237;DHT22;16266;50.866;4.398;2023-07-29T09:21:42;33.90;46.00
29237;DHT22;16266;50.866;4.398;2023-07-29T09:24:12;32.30;51.10
29237;DHT22;16266;50.866;4.398;2023-07-29T09:26:48;31.60;55.40
29237;DHT22;16266;50.866;4.398;2023-07-29T09:29:15;31.10;57.80
29237;DHT22;16266;50.866;4.398;2023-07-29T09:31:46;30.40;60.90
29237;DHT22;16266;50.866;4.398;2023-07-29T09:34:15;29.80;64.60
29237;DHT22;16266;50.866;4.398;2023-07-29T09:36:52;29.90;67.70
29237;DHT22;16266;50.866;4.398;2023-07-29T09:39:18;30.70;67.10
29237;DHT22;16266;50.866;4.398;2023-07-29T09:41:47;31.20;63.40
29237;DHT22;16266;50.866;4.398;2023-07-29T09:44:13;30.70;64.50
29237;DHT22;16266;50.866;4.398;2023-07-29T09:46:39;29.40;68.30
29237;DHT22;16266;50.866;4.398;2023-07-29T09:49:06;28.70;75.00
29237;DHT22;16266;50.866;4.398;2023-07-29T09:51:37;28.10;79.40
29237;DHT22;16266;50.866;4.398;2023-07-29T09:54:04;27.70;83.90
29237;DHT22;16266;50.866;4.398;2023-07-29T09:56:30;27.50;90.00
29237;DHT22;16266;50.866;4.398;2023-07-29T09:58:56;27.50;99.90
29237;DHT22;16266;50.866;4.398;2023-07-29T10:01:23;27.40;99.90
29237;DHT22;16266;50.866;4.398;2023-07-29T10:03:50;26.90;99.90
29237;DHT22;16266;50.866;4.398;2023-07-29T10:06:15;27.50;99.90
29237;DHT22;16266;50.866;4.398;2023-07-29T10:08:43;31.00;97.50
29237;DHT22;16266;50.866;4.398;2023-07-29T10:11:10;33.30;77.30
29237;DHT22;16266;50.866;4.398;2023-07-29T10:13:37;35.20;61.50
29237;DHT22;16266;50.866;4.398;2023-07-29T10:16:03;35.80;54.70
29237;DHT22;16266;50.866;4.398;2023-07-29T10:18:31;35.20;51.90
29237;DHT22;16266;50.866;4.398;2023-07-29T10:20:59;34.70;51.50
29237;DHT22;16266;50.866;4.398;2023-07-29T10:23:26;36.30;46.90
29237;DHT22;16266;50.866;4.398;2023-07-29T10:26:03;36.30;42.90
29237;DHT22;16266;50.866;4.398;2023-07-29T10:28:31;36.30;43.20
29237;DHT22;16266;50.866;4.398;2023-07-29T10:30:58;35.20;42.70
29237;DHT22;16266;50.866;4.398;2023-07-29T10:33:24;34.10;47.00
29237;DHT22;16266;50.866;4.398;2023-07-29T10:35:50;32.70;52.70
29237;DHT22;16266;50.866;4.398;2023-07-29T10:38:16;31.60;59.30
29237;DHT22;16266;50.866;4.398;2023-07-29T10:40:48;30.20;67.10
29237;DHT22;16266;50.866;4.398;2023-07-29T10:45:51;26.30;99.90
29237;DHT22;16266;50.866;4.398;2023-07-29T10:51:24;24.10;99.90
29237;DHT22;16266;50.866;4.398;2023-07-29T10:54:10;23.70;99.90
29237;DHT22;16266;50.866;4.398;2023-07-29T10:56:41;23.40;99.90
29237;DHT22;16266;50.866;4.398;2023-07-29T11:01:43;23.30;99.90
29237;DHT22;16266;50.866;4.398;2023-07-29T11:15:13;22.00;99.90
29237;DHT22;16266;50.866;4.398;2023-07-29T11:18:05;21.80;99.90
29237;DHT22;16266;50.866;4.398;2023-07-29T11:20:33;21.80;99.90
29237;DHT22;16266;50.866;4.398;2023-07-29T11:23:00;21.80;99.90
29237;DHT22;16266;50.866;4.398;2023-07-29T11:25:28;21.90;99.90
29237;DHT22;16266;50.866;4.398;2023-07-29T11:27:56;22.00;99.90
29237;DHT22;16266;50.866;4.398;2023-07-29T11:30:22;21.90;99.90
29237;DHT22;16266;50.866;4.398;2023-07-29T11:32:48;22.10;99.90
29237;DHT22;16266;50.866;4.398;2023-07-29T11:35:17;22.20;99.90
29237;DHT22;16266;50.866;4.398;2023-07-29T11:37:48;22.40;99.90
29237;DHT22;16266;50.866;4.398;2023-07-29T11:40:15;23.00;99.90
29237;DHT22;16266;50.866;4.398;2023-07-29T11:42:41;23.60;99.90
29237;DHT22;16266;50.866;4.398;2023-07-29T11:45:07;24.70;99.90
29237;DHT22;16266;50.866;4.398;2023-07-29T11:47:34;26.00;99.90
29237;DHT22;16266;50.866;4.398;2023-07-29T11:50:07;29.20;99.90
29237;DHT22;16266;50.866;4.398;2023-07-29T11:52:37;32.50;99.90
29237;DHT22;16266;50.866;4.398;2023-07-29T11:55:04;34.80;99.90
29237;DHT22;16266;50.866;4.398;2023-07-29T11:57:31;35.00;97.60
29237;DHT22;16266;50.866;4.398;2023-07-29T11:59:57;36.10;94.30
29237;DHT22;16266;50.866;4.398;2023-07-29T12:02:23;37.10;86.30
29237;DHT22;16266;50.866;4.398;2023-07-29T12:04:50;36.40;74.00
29237;DHT22;16266;50.866;4.398;2023-07-29T12:07:17;36.10;77.40
29237;DHT22;16266;50.866;4.398;2023-07-29T12:09:43;34.80;79.90
29237;DHT22;16266;50.866;4.398;2023-07-29T12:12:09;32.60;94.50
29237;DHT22;16266;50.866;4.398;2023-07-29T12:14:35;29.10;99.90
29237;DHT22;16266;50.866;4.398;2023-07-29T12:17:01;27.10;99.90
29237;DHT22;16266;50.866;4.398;2023-07-29T12:19:36;25.30;99.90
29237;DHT22;16266;50.866;4.398;2023-07-29T12:22:04;24.20;99.90
29237;DHT22;16266;50.866;4.398;2023-07-29T12:24:35;23.80;99.90
29237;DHT22;16266;50.866;4.398;2023-07-29T12:27:01;23.90;99.90
29237;DHT22;16266;50.866;4.398;2023-07-29T12:29:29;24.00;99.90
29237;DHT22;16266;50.866;4.398;2023-07-29T12:32:02;24.10;99.90
29237;DHT22;16266;50.866;4.398;2023-07-29T12:34:29;23.80;99.90
29237;DHT22;16266;50.866;4.398;2023-07-29T12:36:57;23.60;99.90
29237;DHT22;16266;50.866;4.398;2023-07-29T12:39:26;24.10;99.90
29237;DHT22;16266;50.866;4.398;2023-07-29T12:41:54;25.00;99.90
29237;DHT22;16266;50.866;4.398;2023-07-29T12:44:23;25.70;99.90
29237;DHT22;16266;50.866;4.398;2023-07-29T12:46:49;26.70;99.90
29237;DHT22;16266;50.866;4.398;2023-07-29T12:49:14;28.20;99.90
29237;DHT22;16266;50.866;4.398;2023-07-29T12:51:40;28.20;99.90
29237;DHT22;16266;50.866;4.398;2023-07-29T12:54:06;28.30;99.90
29237;DHT22;16266;50.866;4.398;2023-07-29T12:56:32;28.70;99.90
29237;DHT22;16266;50.866;4.398;2023-07-29T12:58:59;29.80;99.90
29237;DHT22;16266;50.866;4.398;2023-07-29T13:01:27;30.60;99.90
29237;DHT22;16266;50.866;4.398;2023-07-29T13:03:53;29.90;99.90
29237;DHT22;16266;50.866;4.398;2023-07-29T13:06:20;29.70;99.90
29237;DHT22;16266;50.866;4.398;2023-07-29T13:08:46;30.40;99.90
29237;DHT22;16266;50.866;4.398;2023-07-29T13:11:12;32.10;99.90
29237;DHT22;16266;50.866;4.398;2023-07-29T13:13:37;32.50;99.90
29237;DHT22;16266;50.866;4.398;2023-07-29T13:16:03;32.80;99.90
29237;DHT22;16266;50.866;4.398;2023-07-29T13:18:29;32.40;97.30
29237;DHT22;16266;50.866;4.398;2023-07-29T13:20:55;31.60;99.70
29237;DHT22;16266;50.866;4.398;2023-07-29T13:23:21;30.60;98.80
29237;DHT22;16266;50.866;4.398;2023-07-29T13:25:47;29.70;99.90
29237;DHT22;16266;50.866;4.398;2023-07-29T13:28:13;29.00;99.90
29237;DHT22;16266;50.866;4.398;2023-07-29T13:30:41;28.30;99.90
29237;DHT22;16266;50.866;4.398;2023-07-29T13:33:07;27.80;99.90
29237;DHT22;16266;50.866;4.398;2023-07-29T13:35:33;27.90;99.90
29237;DHT22;16266;50.866;4.398;2023-07-29T13:38:00;28.10;99.90
29237;DHT22;16266;50.866;4.398;2023-07-29T13:40:25;30.10;99.90
29237;DHT22;16266;50.866;4.398;2023-07-29T13:42:54;31.40;97.70
29237;DHT22;16266;50.866;4.398;2023-07-29T13:45:20;32.00;96.50
29237;DHT22;16266;50.866;4.398;2023-07-29T13:47:46;31.90;94.00
29237;DHT22;16266;50.866;4.398;2023-07-29T13:50:13;31.50;92.10
29237;DHT22;16266;50.866;4.398;2023-07-29T13:52:39;31.00;92.70
29237;DHT22;16266;50.866;4.398;2023-07-29T13:55:05;30.00;96.40
29237;DHT22;16266;50.866;4.398;2023-07-29T13:57:31;29.30;99.10
29237;DHT22;16266;50.866;4.398;2023-07-29T13:59:58;29.10;99.90
29237;DHT22;16266;50.866;4.398;2023-07-29T14:02:24;29.10;99.90
29237;DHT22;16266;50.866;4.398;2023-07-29T14:04:52;28.60;99.90
29237;DHT22;16266;50.866;4.398;2023-07-29T14:07:17;27.90;99.90
29237;DHT22;16266;50.866;4.398;2023-07-29T14:09:43;27.20;99.90
29237;DHT22;16266;50.866;4.398;2023-07-29T14:12:09;26.60;99.90
29237;DHT22;16266;50.866;4.398;2023-07-29T14:14:40;26.70;99.90
29237;DHT22;16266;50.866;4.398;2023-07-29T14:17:06;26.90;99.90
29237;DHT22;16266;50.866;4.398;2023-07-29T14:19:32;27.60;99.90
29237;DHT22;16266;50.866;4.398;2023-07-29T14:21:58;28.00;99.90
29237;DHT22;16266;50.866;4.398;2023-07-29T14:24:23;27.90;99.90
29237;DHT22;16266;50.866;4.398;2023-07-29T14:26:49;28.40;99.90
29237;DHT22;16266;50.866;4.398;2023-07-29T14:29:15;28.80;99.90
29237;DHT22;16266;50.866;4.398;2023-07-29T14:31:41;28.80;99.90
29237;DHT22;16266;50.866;4.398;2023-07-29T14:34:06;28.00;99.90
29237;DHT22;16266;50.866;4.398;2023-07-29T14:36:32;28.20;99.90
29237;DHT22;16266;50.866;4.398;2023-07-29T14:38:58;28.20;99.90
29237;DHT22;16266;50.866;4.398;2023-07-29T14:41:24;27.90;99.90
29237;DHT22;16266;50.866;4.398;2023-07-29T14:43:49;27.80;99.90
29237;DHT22;16266;50.866;4.398;2023-07-29T14:46:15;27.60;99.90
29237;DHT22;16266;50.866;4.398;2023-07-29T14:48:40;28.00;99.90
29237;DHT22;16266;50.866;4.398;2023-07-29T14:51:06;27.70;99.60
29237;DHT22;16266;50.866;4.398;2023-07-29T14:53:32;27.40;99.90
29237;DHT22;16266;50.866;4.398;2023-07-29T14:55:57;27.20;99.90
29237;DHT22;16266;50.866;4.398;2023-07-29T14:58:23;27.00;99.90
29237;DHT22;16266;50.866;4.398;2023-07-29T15:00:51;27.10;99.90
29237;DHT22;16266;50.866;4.398;2023-07-29T15:03:18;27.00;99.90
29237;DHT22;16266;50.866;4.398;2023-07-29T15:05:44;27.40;99.90
29237;DHT22;16266;50.866;4.398;2023-07-29T15:08:10;27.20;99.90
29237;DHT22;16266;50.866;4.398;2023-07-29T15:10:35;27.20;99.90
29237;DHT22;16266;50.866;4.398;2023-07-29T15:13:01;27.30;99.90
29237;DHT22;16266;50.866;4.398;2023-07-29T15:15:27;27.10;99.90
29237;DHT22;16266;50.866;4.398;2023-07-29T15:17:53;26.90;99.90
29237;DHT22;16266;50.866;4.398;2023-07-29T15:20:19;27.10;99.90
29237;DHT22;16266;50.866;4.398;2023-07-29T15:22:45;27.60;99.90
29237;DHT22;16266;50.866;4.398;2023-07-29T15:25:11;27.80;99.90
29237;DHT22;16266;50.866;4.398;2023-07-29T15:27:38;27.50;99.90
29237;DHT22;16266;50.866;4.398;2023-07-29T15:30:07;27.60;99.90
29237;DHT22;16266;50.866;4.398;2023-07-29T15:32:33;27.60;99.90
29237;DHT22;16266;50.866;4.398;2023-07-29T15:34:58;27.30;99.90
29237;DHT22;16266;50.866;4.398;2023-07-29T15:37:27;27.10;99.90
29237;DHT22;16266;50.866;4.398;2023-07-29T15:39:53;26.80;99.90
29237;DHT22;16266;50.866;4.398;2023-07-29T15:42:20;26.60;99.90
29237;DHT22;16266;50.866;4.398;2023-07-29T15:44:45;26.30;99.90
29237;DHT22;16266;50.866;4.398;2023-07-29T15:47:11;26.10;99.90
29237;DHT22;16266;50.866;4.398;2023-07-29T15:49:38;25.80;99.90
29237;DHT22;16266;50.866;4.398;2023-07-29T15:52:04;25.40;99.90